ENAN

Andøya Airport

Andenes, Norway
METAR ENAN 201220Z 22015KT 9999 -DZ FEW034 BKN045 08/05 Q1011
Observed Flight Rules
Oct-20 @ 12:20 UTC (32 minutes ago) Visual Flight Rules
Wind Visibility Clouds Conditions
220° at 15 knots 10,000+ meters
  • Few at 3,400' AGL
  • Broken at 4,500' AGL
  • Light Drizzle
Temperatures Readings
Current 8°C / 46°F
Dewpoint 5°C / 41°F
Humidity 82%
Altimeter 29.85" Hg
Pressure 1011 hPa
Elevation 14
METAR ENAN 201220Z 22015KT 9999 -DZ FEW034 BKN045 08/05 Q1011
Observed Flight Rules
Oct-20 @ 12:20 UTC
(32 minutes ago)
VFR
Wind Visibility
220° at 15 knots 10,000+ meters
Clouds
  • Few at 3,400' AGL
  • Broken at 4,500' AGL
Conditions
  • Light Drizzle
Temperature Dewpoint
8°C / 46°F 5°C / 41°F
Humidity Altimeter Pressure
82% 29.85" Hg 1011 hPa